sensor_id;sensor_type;location;lat;lon;timestamp;P1;durP1;ratioP1;P2;durP2;ratioP2
1300;SDS011;59099;48.806;9.160;2022-12-19T00:01:37;46.67;;;25.83;;
1300;SDS011;59099;48.806;9.160;2022-12-19T00:04:04;41.93;;;24.13;;
1300;SDS011;59099;48.806;9.160;2022-12-19T00:06:32;43.10;;;24.13;;
1300;SDS011;59099;48.806;9.160;2022-12-19T00:08:58;44.43;;;24.60;;
1300;SDS011;59099;48.806;9.160;2022-12-19T00:11:27;45.43;;;24.43;;
1300;SDS011;59099;48.806;9.160;2022-12-19T00:13:53;44.20;;;24.60;;
1300;SDS011;59099;48.806;9.160;2022-12-19T00:16:24;46.63;;;25.13;;
1300;SDS011;59099;48.806;9.160;2022-12-19T00:18:52;40.47;;;23.43;;
1300;SDS011;59099;48.806;9.160;2022-12-19T00:21:20;42.57;;;23.80;;
1300;SDS011;59099;48.806;9.160;2022-12-19T00:23:47;44.90;;;23.90;;
1300;SDS011;59099;48.806;9.160;2022-12-19T00:26:15;46.70;;;26.13;;
1300;SDS011;59099;48.806;9.160;2022-12-19T00:28:41;44.60;;;23.07;;
1300;SDS011;59099;48.806;9.160;2022-12-19T00:31:09;40.70;;;24.17;;
1300;SDS011;59099;48.806;9.160;2022-12-19T00:33:38;39.80;;;24.90;;
1300;SDS011;59099;48.806;9.160;2022-12-19T00:36:06;40.80;;;23.97;;
1300;SDS011;59099;48.806;9.160;2022-12-19T00:38:37;41.70;;;24.10;;
1300;SDS011;59099;48.806;9.160;2022-12-19T00:43:31;51.57;;;25.83;;
1300;SDS011;59099;48.806;9.160;2022-12-19T00:45:57;41.80;;;24.70;;
1300;SDS011;59099;48.806;9.160;2022-12-19T00:48:25;43.50;;;23.63;;
1300;SDS011;59099;48.806;9.160;2022-12-19T00:50:57;45.90;;;26.07;;
1300;SDS011;59099;48.806;9.160;2022-12-19T00:53:27;45.50;;;25.30;;
1300;SDS011;59099;48.806;9.160;2022-12-19T00:55:59;44.83;;;25.27;;
1300;SDS011;59099;48.806;9.160;2022-12-19T00:58:31;36.43;;;22.20;;
1300;SDS011;59099;48.806;9.160;2022-12-19T01:00:57;41.73;;;25.13;;
1300;SDS011;59099;48.806;9.160;2022-12-19T01:03:23;46.37;;;25.77;;
1300;SDS011;59099;48.806;9.160;2022-12-19T01:05:50;42.53;;;24.70;;
1300;SDS011;59099;48.806;9.160;2022-12-19T01:08:22;53.07;;;27.60;;
1300;SDS011;59099;48.806;9.160;2022-12-19T01:10:48;41.10;;;23.67;;
1300;SDS011;59099;48.806;9.160;2022-12-19T01:13:15;42.23;;;25.83;;
1300;SDS011;59099;48.806;9.160;2022-12-19T01:15:43;43.43;;;24.90;;
1300;SDS011;59099;48.806;9.160;2022-12-19T01:18:15;46.30;;;24.90;;
1300;SDS011;59099;48.806;9.160;2022-12-19T01:20:41;47.60;;;26.90;;
1300;SDS011;59099;48.806;9.160;2022-12-19T01:23:09;42.23;;;24.50;;
1300;SDS011;59099;48.806;9.160;2022-12-19T01:25:36;47.90;;;25.17;;
1300;SDS011;59099;48.806;9.160;2022-12-19T01:28:02;43.23;;;26.60;;
1300;SDS011;59099;48.806;9.160;2022-12-19T01:30:30;42.57;;;25.07;;
1300;SDS011;59099;48.806;9.160;2022-12-19T01:32:57;42.57;;;23.60;;
1300;SDS011;59099;48.806;9.160;2022-12-19T01:35:25;44.60;;;26.53;;
1300;SDS011;59099;48.806;9.160;2022-12-19T01:37:52;48.80;;;26.57;;
1300;SDS011;59099;48.806;9.160;2022-12-19T01:40:19;40.37;;;25.03;;
1300;SDS011;59099;48.806;9.160;2022-12-19T01:42:46;44.67;;;25.70;;
1300;SDS011;59099;48.806;9.160;2022-12-19T01:50:26;49.07;;;26.70;;
1300;SDS011;59099;48.806;9.160;2022-12-19T01:52:58;50.67;;;27.13;;
1300;SDS011;59099;48.806;9.160;2022-12-19T01:55:28;51.97;;;26.90;;
1300;SDS011;59099;48.806;9.160;2022-12-19T01:57:55;50.57;;;28.00;;
1300;SDS011;59099;48.806;9.160;2022-12-19T02:00:21;45.83;;;27.33;;
1300;SDS011;59099;48.806;9.160;2022-12-19T02:03:02;46.87;;;25.57;;
1300;SDS011;59099;48.806;9.160;2022-12-19T02:05:42;44.10;;;26.40;;
1300;SDS011;59099;48.806;9.160;2022-12-19T02:08:09;51.20;;;26.63;;
1300;SDS011;59099;48.806;9.160;2022-12-19T02:10:35;44.60;;;24.60;;
1300;SDS011;59099;48.806;9.160;2022-12-19T02:13:01;46.37;;;26.57;;
1300;SDS011;59099;48.806;9.160;2022-12-19T02:15:28;46.70;;;27.33;;
1300;SDS011;59099;48.806;9.160;2022-12-19T02:20:50;42.03;;;26.93;;
1300;SDS011;59099;48.806;9.160;2022-12-19T02:26:19;47.17;;;28.30;;
1300;SDS011;59099;48.806;9.160;2022-12-19T02:32:06;43.70;;;25.97;;
1300;SDS011;59099;48.806;9.160;2022-12-19T02:34:55;42.20;;;27.87;;
1300;SDS011;59099;48.806;9.160;2022-12-19T02:37:47;47.37;;;27.57;;
1300;SDS011;59099;48.806;9.160;2022-12-19T02:40:41;47.33;;;27.40;;
1300;SDS011;59099;48.806;9.160;2022-12-19T02:43:17;48.30;;;28.07;;
1300;SDS011;59099;48.806;9.160;2022-12-19T02:45:45;47.13;;;27.20;;
1300;SDS011;59099;48.806;9.160;2022-12-19T02:48:12;45.67;;;27.73;;
1300;SDS011;59099;48.806;9.160;2022-12-19T02:50:39;46.23;;;27.40;;
1300;SDS011;59099;48.806;9.160;2022-12-19T02:53:12;49.80;;;27.13;;
1300;SDS011;59099;48.806;9.160;2022-12-19T03:01:30;50.67;;;28.00;;
1300;SDS011;59099;48.806;9.160;2022-12-19T03:12:31;42.57;;;23.60;;
1300;SDS011;59099;48.806;9.160;2022-12-19T03:15:03;45.60;;;27.40;;
1300;SDS011;59099;48.806;9.160;2022-12-19T03:17:35;49.47;;;29.60;;
1300;SDS011;59099;48.806;9.160;2022-12-19T03:20:06;49.17;;;28.33;;
1300;SDS011;59099;48.806;9.160;2022-12-19T03:22:38;50.90;;;29.17;;
1300;SDS011;59099;48.806;9.160;2022-12-19T03:25:04;57.40;;;30.03;;
1300;SDS011;59099;48.806;9.160;2022-12-19T03:27:32;44.20;;;27.43;;
1300;SDS011;59099;48.806;9.160;2022-12-19T03:30:01;53.07;;;30.00;;
1300;SDS011;59099;48.806;9.160;2022-12-19T03:32:30;48.03;;;28.83;;
1300;SDS011;59099;48.806;9.160;2022-12-19T03:35:02;48.13;;;27.83;;
1300;SDS011;59099;48.806;9.160;2022-12-19T03:37:33;44.20;;;27.60;;
1300;SDS011;59099;48.806;9.160;2022-12-19T03:40:05;43.27;;;28.77;;
1300;SDS011;59099;48.806;9.160;2022-12-19T03:42:36;45.90;;;29.13;;
1300;SDS011;59099;48.806;9.160;2022-12-19T03:45:27;48.93;;;28.70;;
1300;SDS011;59099;48.806;9.160;2022-12-19T03:47:59;46.43;;;27.37;;
1300;SDS011;59099;48.806;9.160;2022-12-19T03:50:34;45.77;;;28.10;;
1300;SDS011;59099;48.806;9.160;2022-12-19T03:53:20;60.03;;;31.93;;
1300;SDS011;59099;48.806;9.160;2022-12-19T03:55:57;44.67;;;26.93;;
1300;SDS011;59099;48.806;9.160;2022-12-19T03:58:34;44.97;;;24.40;;
1300;SDS011;59099;48.806;9.160;2022-12-19T04:01:04;48.63;;;29.07;;
1300;SDS011;59099;48.806;9.160;2022-12-19T04:03:31;43.80;;;27.07;;
1300;SDS011;59099;48.806;9.160;2022-12-19T04:05:57;44.83;;;26.90;;
1300;SDS011;59099;48.806;9.160;2022-12-19T04:08:24;45.43;;;27.23;;
1300;SDS011;59099;48.806;9.160;2022-12-19T04:10:55;50.17;;;28.60;;
1300;SDS011;59099;48.806;9.160;2022-12-19T04:13:28;47.17;;;26.30;;
1300;SDS011;59099;48.806;9.160;2022-12-19T04:16:09;43.13;;;25.83;;
1300;SDS011;59099;48.806;9.160;2022-12-19T04:18:44;45.90;;;26.07;;
1300;SDS011;59099;48.806;9.160;2022-12-19T04:21:22;50.67;;;27.70;;
1300;SDS011;59099;48.806;9.160;2022-12-19T04:23:59;43.50;;;26.10;;
1300;SDS011;59099;48.806;9.160;2022-12-19T04:26:30;40.70;;;22.27;;
1300;SDS011;59099;48.806;9.160;2022-12-19T04:28:59;44.23;;;26.57;;
1300;SDS011;59099;48.806;9.160;2022-12-19T04:31:28;47.70;;;25.97;;
1300;SDS011;59099;48.806;9.160;2022-12-19T04:33:55;41.40;;;26.43;;
1300;SDS011;59099;48.806;9.160;2022-12-19T04:36:20;42.43;;;22.80;;
1300;SDS011;59099;48.806;9.160;2022-12-19T04:38:49;37.93;;;23.23;;
1300;SDS011;59099;48.806;9.160;2022-12-19T04:41:15;46.07;;;25.27;;
1300;SDS011;59099;48.806;9.160;2022-12-19T04:43:41;41.70;;;23.60;;
1300;SDS011;59099;48.806;9.160;2022-12-19T04:46:07;40.93;;;23.83;;
1300;SDS011;59099;48.806;9.160;2022-12-19T04:48:37;42.43;;;22.50;;
1300;SDS011;59099;48.806;9.160;2022-12-19T04:51:03;44.97;;;24.90;;
1300;SDS011;59099;48.806;9.160;2022-12-19T04:53:29;40.03;;;24.33;;
1300;SDS011;59099;48.806;9.160;2022-12-19T04:55:59;40.27;;;22.83;;
1300;SDS011;59099;48.806;9.160;2022-12-19T04:58:29;38.20;;;22.00;;
1300;SDS011;59099;48.806;9.160;2022-12-19T05:01:01;46.13;;;24.70;;
1300;SDS011;59099;48.806;9.160;2022-12-19T05:03:29;51.10;;;27.83;;
1300;SDS011;59099;48.806;9.160;2022-12-19T05:06:06;45.70;;;24.47;;
1300;SDS011;59099;48.806;9.160;2022-12-19T05:08:37;42.93;;;26.80;;
1300;SDS011;59099;48.806;9.160;2022-12-19T05:11:04;40.70;;;26.30;;
1300;SDS011;59099;48.806;9.160;2022-12-19T05:13:31;48.17;;;27.00;;
1300;SDS011;59099;48.806;9.160;2022-12-19T05:18:30;51.80;;;28.03;;
1300;SDS011;59099;48.806;9.160;2022-12-19T05:20:56;43.87;;;25.20;;
1300;SDS011;59099;48.806;9.160;2022-12-19T05:23:22;47.43;;;28.20;;
1300;SDS011;59099;48.806;9.160;2022-12-19T05:25:49;48.87;;;25.77;;
1300;SDS011;59099;48.806;9.160;2022-12-19T05:28:18;44.87;;;24.73;;
1300;SDS011;59099;48.806;9.160;2022-12-19T05:30:44;45.00;;;26.30;;
1300;SDS011;59099;48.806;9.160;2022-12-19T05:33:10;53.20;;;26.27;;
1300;SDS011;59099;48.806;9.160;2022-12-19T05:35:36;43.00;;;24.40;;
1300;SDS011;59099;48.806;9.160;2022-12-19T05:38:02;47.30;;;24.83;;
1300;SDS011;59099;48.806;9.160;2022-12-19T05:40:28;43.83;;;24.80;;
1300;SDS011;59099;48.806;9.160;2022-12-19T05:42:54;39.60;;;23.50;;
1300;SDS011;59099;48.806;9.160;2022-12-19T05:45:20;42.87;;;27.43;;
1300;SDS011;59099;48.806;9.160;2022-12-19T05:47:46;36.60;;;21.57;;
1300;SDS011;59099;48.806;9.160;2022-12-19T05:50:12;33.90;;;21.20;;
1300;SDS011;59099;48.806;9.160;2022-12-19T05:52:39;38.47;;;20.60;;
1300;SDS011;59099;48.806;9.160;2022-12-19T05:55:05;35.83;;;20.43;;
1300;SDS011;59099;48.806;9.160;2022-12-19T05:57:32;32.70;;;18.70;;
1300;SDS011;59099;48.806;9.160;2022-12-19T05:59:58;31.73;;;19.80;;
1300;SDS011;59099;48.806;9.160;2022-12-19T06:02:23;27.83;;;18.27;;
1300;SDS011;59099;48.806;9.160;2022-12-19T06:04:50;37.70;;;21.17;;
1300;SDS011;59099;48.806;9.160;2022-12-19T06:07:16;35.27;;;21.93;;
1300;SDS011;59099;48.806;9.160;2022-12-19T06:09:42;43.83;;;24.50;;
1300;SDS011;59099;48.806;9.160;2022-12-19T06:12:07;38.03;;;23.90;;
1300;SDS011;59099;48.806;9.160;2022-12-19T06:14:33;44.53;;;24.67;;
1300;SDS011;59099;48.806;9.160;2022-12-19T06:16:59;37.43;;;22.87;;
1300;SDS011;59099;48.806;9.160;2022-12-19T06:19:24;38.03;;;23.77;;
1300;SDS011;59099;48.806;9.160;2022-12-19T06:21:50;43.80;;;24.53;;
1300;SDS011;59099;48.806;9.160;2022-12-19T06:24:16;40.73;;;25.63;;
1300;SDS011;59099;48.806;9.160;2022-12-19T06:26:42;50.67;;;27.13;;
1300;SDS011;59099;48.806;9.160;2022-12-19T06:29:08;46.47;;;25.70;;
1300;SDS011;59099;48.806;9.160;2022-12-19T06:31:34;46.73;;;26.17;;
1300;SDS011;59099;48.806;9.160;2022-12-19T06:34:02;46.37;;;26.10;;
1300;SDS011;59099;48.806;9.160;2022-12-19T06:36:29;46.17;;;25.90;;
1300;SDS011;59099;48.806;9.160;2022-12-19T06:38:55;40.33;;;23.97;;
1300;SDS011;59099;48.806;9.160;2022-12-19T06:41:22;51.10;;;25.13;;
1300;SDS011;59099;48.806;9.160;2022-12-19T06:44:08;45.53;;;26.17;;
1300;SDS011;59099;48.806;9.160;2022-12-19T06:46:35;40.23;;;24.00;;
1300;SDS011;59099;48.806;9.160;2022-12-19T06:49:01;45.13;;;26.50;;
1300;SDS011;59099;48.806;9.160;2022-12-19T06:51:27;42.07;;;24.50;;
1300;SDS011;59099;48.806;9.160;2022-12-19T06:53:54;44.50;;;25.30;;
1300;SDS011;59099;48.806;9.160;2022-12-19T06:56:20;52.03;;;26.27;;
1300;SDS011;59099;48.806;9.160;2022-12-19T06:58:46;42.63;;;26.87;;
1300;SDS011;59099;48.806;9.160;2022-12-19T07:01:17;39.40;;;23.27;;
1300;SDS011;59099;48.806;9.160;2022-12-19T07:03:43;47.03;;;27.63;;
1300;SDS011;59099;48.806;9.160;2022-12-19T07:06:11;49.77;;;25.93;;
1300;SDS011;59099;48.806;9.160;2022-12-19T07:08:37;44.73;;;24.50;;
1300;SDS011;59099;48.806;9.160;2022-12-19T07:11:03;43.80;;;27.80;;
1300;SDS011;59099;48.806;9.160;2022-12-19T07:13:28;45.30;;;25.93;;
1300;SDS011;59099;48.806;9.160;2022-12-19T07:15:56;49.20;;;27.63;;
1300;SDS011;59099;48.806;9.160;2022-12-19T07:18:25;42.20;;;25.63;;
1300;SDS011;59099;48.806;9.160;2022-12-19T07:20:52;42.20;;;24.53;;
1300;SDS011;59099;48.806;9.160;2022-12-19T07:23:19;41.77;;;27.60;;
1300;SDS011;59099;48.806;9.160;2022-12-19T07:25:46;47.20;;;26.80;;
1300;SDS011;59099;48.806;9.160;2022-12-19T07:28:12;49.10;;;27.33;;
1300;SDS011;59099;48.806;9.160;2022-12-19T07:30:38;45.40;;;25.97;;
1300;SDS011;59099;48.806;9.160;2022-12-19T07:33:03;42.70;;;25.77;;
1300;SDS011;59099;48.806;9.160;2022-12-19T07:35:29;43.97;;;27.10;;
1300;SDS011;59099;48.806;9.160;2022-12-19T07:38:01;49.40;;;29.50;;
1300;SDS011;59099;48.806;9.160;2022-12-19T07:40:33;51.20;;;30.60;;
1300;SDS011;59099;48.806;9.160;2022-12-19T07:43:03;48.63;;;27.33;;
1300;SDS011;59099;48.806;9.160;2022-12-19T07:45:30;45.07;;;27.60;;
1300;SDS011;59099;48.806;9.160;2022-12-19T07:48:00;41.80;;;25.50;;
1300;SDS011;59099;48.806;9.160;2022-12-19T07:50:26;40.23;;;24.40;;
1300;SDS011;59099;48.806;9.160;2022-12-19T07:52:53;47.63;;;25.57;;
1300;SDS011;59099;48.806;9.160;2022-12-19T07:55:19;37.63;;;24.83;;
1300;SDS011;59099;48.806;9.160;2022-12-19T07:57:46;44.93;;;25.63;;
1300;SDS011;59099;48.806;9.160;2022-12-19T08:00:15;52.67;;;27.57;;
1300;SDS011;59099;48.806;9.160;2022-12-19T08:02:58;41.90;;;27.00;;
1300;SDS011;59099;48.806;9.160;2022-12-19T08:05:24;42.80;;;26.23;;
1300;SDS011;59099;48.806;9.160;2022-12-19T08:07:52;43.50;;;27.10;;
1300;SDS011;59099;48.806;9.160;2022-12-19T08:10:19;44.17;;;27.80;;
1300;SDS011;59099;48.806;9.160;2022-12-19T08:12:47;47.90;;;25.77;;
1300;SDS011;59099;48.806;9.160;2022-12-19T08:15:13;40.10;;;25.97;;
1300;SDS011;59099;48.806;9.160;2022-12-19T08:17:40;36.00;;;24.37;;
1300;SDS011;59099;48.806;9.160;2022-12-19T08:20:07;45.20;;;26.50;;
1300;SDS011;59099;48.806;9.160;2022-12-19T08:22:39;45.03;;;25.50;;
1300;SDS011;59099;48.806;9.160;2022-12-19T08:25:05;45.27;;;27.87;;
1300;SDS011;59099;48.806;9.160;2022-12-19T08:27:31;40.63;;;25.90;;
1300;SDS011;59099;48.806;9.160;2022-12-19T08:30:00;48.53;;;26.20;;
1300;SDS011;59099;48.806;9.160;2022-12-19T08:32:25;39.67;;;24.10;;
1300;SDS011;59099;48.806;9.160;2022-12-19T08:34:54;37.30;;;24.70;;
1300;SDS011;59099;48.806;9.160;2022-12-19T08:37:20;43.80;;;26.10;;
1300;SDS011;59099;48.806;9.160;2022-12-19T08:39:46;44.33;;;26.23;;
1300;SDS011;59099;48.806;9.160;2022-12-19T08:42:12;43.13;;;24.37;;
1300;SDS011;59099;48.806;9.160;2022-12-19T08:44:38;35.20;;;22.60;;
1300;SDS011;59099;48.806;9.160;2022-12-19T08:47:05;45.17;;;25.03;;
1300;SDS011;59099;48.806;9.160;2022-12-19T08:49:31;36.50;;;23.50;;
1300;SDS011;59099;48.806;9.160;2022-12-19T08:51:57;40.50;;;23.33;;
1300;SDS011;59099;48.806;9.160;2022-12-19T08:54:22;37.73;;;23.73;;
1300;SDS011;59099;48.806;9.160;2022-12-19T08:56:48;37.47;;;23.73;;
1300;SDS011;59099;48.806;9.160;2022-12-19T08:59:17;32.93;;;20.83;;
1300;SDS011;59099;48.806;9.160;2022-12-19T09:01:43;40.30;;;22.97;;
1300;SDS011;59099;48.806;9.160;2022-12-19T09:04:19;38.00;;;21.80;;
1300;SDS011;59099;48.806;9.160;2022-12-19T09:06:44;38.83;;;22.20;;
1300;SDS011;59099;48.806;9.160;2022-12-19T09:09:10;35.33;;;21.30;;
1300;SDS011;59099;48.806;9.160;2022-12-19T09:11:36;40.90;;;22.93;;
1300;SDS011;59099;48.806;9.160;2022-12-19T09:14:02;41.40;;;22.47;;
1300;SDS011;59099;48.806;9.160;2022-12-19T09:16:29;36.37;;;22.37;;
1300;SDS011;59099;48.806;9.160;2022-12-19T09:18:56;36.77;;;22.50;;
1300;SDS011;59099;48.806;9.160;2022-12-19T09:21:23;43.80;;;22.13;;
1300;SDS011;59099;48.806;9.160;2022-12-19T09:23:54;34.07;;;22.03;;
1300;SDS011;59099;48.806;9.160;2022-12-19T09:26:23;33.57;;;21.60;;
1300;SDS011;59099;48.806;9.160;2022-12-19T09:28:50;35.20;;;21.93;;
1300;SDS011;59099;48.806;9.160;2022-12-19T09:31:17;42.47;;;23.40;;
1300;SDS011;59099;48.806;9.160;2022-12-19T09:33:47;38.60;;;23.03;;
1300;SDS011;59099;48.806;9.160;2022-12-19T09:36:13;38.33;;;24.33;;
1300;SDS011;59099;48.806;9.160;2022-12-19T09:38:42;43.13;;;23.53;;
1300;SDS011;59099;48.806;9.160;2022-12-19T09:46:41;35.23;;;20.93;;
1300;SDS011;59099;48.806;9.160;2022-12-19T09:49:35;36.50;;;21.93;;
1300;SDS011;59099;48.806;9.160;2022-12-19T09:52:05;35.20;;;21.43;;
1300;SDS011;59099;48.806;9.160;2022-12-19T09:55:11;33.23;;;21.33;;
1300;SDS011;59099;48.806;9.160;2022-12-19T10:00:16;31.63;;;20.77;;
1300;SDS011;59099;48.806;9.160;2022-12-19T10:05:24;28.63;;;18.30;;
1300;SDS011;59099;48.806;9.160;2022-12-19T10:08:08;36.30;;;22.37;;
1300;SDS011;59099;48.806;9.160;2022-12-19T10:19:20;30.97;;;20.10;;
1300;SDS011;59099;48.806;9.160;2022-12-19T10:22:03;32.07;;;20.17;;
1300;SDS011;59099;48.806;9.160;2022-12-19T10:27:52;32.07;;;20.63;;
1300;SDS011;59099;48.806;9.160;2022-12-19T10:30:28;28.80;;;18.87;;
1300;SDS011;59099;48.806;9.160;2022-12-19T10:33:18;20.17;;;14.20;;
1300;SDS011;59099;48.806;9.160;2022-12-19T10:36:00;26.10;;;16.70;;
1300;SDS011;59099;48.806;9.160;2022-12-19T10:41:18;26.40;;;17.93;;
1300;SDS011;59099;48.806;9.160;2022-12-19T10:51:39;28.50;;;20.23;;
1300;SDS011;59099;48.806;9.160;2022-12-19T10:54:06;26.17;;;17.73;;
1300;SDS011;59099;48.806;9.160;2022-12-19T10:56:33;29.40;;;19.60;;
1300;SDS011;59099;48.806;9.160;2022-12-19T10:59:00;28.27;;;19.77;;
1300;SDS011;59099;48.806;9.160;2022-12-19T11:01:27;29.63;;;21.53;;
1300;SDS011;59099;48.806;9.160;2022-12-19T11:04:13;29.37;;;19.40;;
1300;SDS011;59099;48.806;9.160;2022-12-19T11:09:38;26.87;;;17.13;;
1300;SDS011;59099;48.806;9.160;2022-12-19T11:14:32;25.83;;;17.37;;
1300;SDS011;59099;48.806;9.160;2022-12-19T11:16:59;21.97;;;16.43;;
1300;SDS011;59099;48.806;9.160;2022-12-19T11:19:36;14.87;;;11.70;;
1300;SDS011;59099;48.806;9.160;2022-12-19T11:22:04;20.17;;;14.87;;
1300;SDS011;59099;48.806;9.160;2022-12-19T11:24:43;16.00;;;12.40;;
1300;SDS011;59099;48.806;9.160;2022-12-19T11:30:15;19.20;;;13.07;;
1300;SDS011;59099;48.806;9.160;2022-12-19T11:32:45;26.80;;;18.87;;
1300;SDS011;59099;48.806;9.160;2022-12-19T11:35:20;26.53;;;18.00;;
1300;SDS011;59099;48.806;9.160;2022-12-19T11:37:55;28.57;;;20.10;;
1300;SDS011;59099;48.806;9.160;2022-12-19T11:40:31;28.60;;;21.33;;
1300;SDS011;59099;48.806;9.160;2022-12-19T11:43:12;32.60;;;22.27;;
1300;SDS011;59099;48.806;9.160;2022-12-19T11:48:40;29.13;;;22.13;;
1300;SDS011;59099;48.806;9.160;2022-12-19T11:51:30;30.07;;;20.93;;
1300;SDS011;59099;48.806;9.160;2022-12-19T11:56:44;31.63;;;21.83;;
1300;SDS011;59099;48.806;9.160;2022-12-19T11:59:16;30.43;;;21.00;;
1300;SDS011;59099;48.806;9.160;2022-12-19T12:07:34;27.07;;;19.90;;
1300;SDS011;59099;48.806;9.160;2022-12-19T12:10:16;28.20;;;21.80;;
1300;SDS011;59099;48.806;9.160;2022-12-19T12:15:37;28.30;;;20.60;;
1300;SDS011;59099;48.806;9.160;2022-12-19T12:18:41;24.77;;;19.63;;
1300;SDS011;59099;48.806;9.160;2022-12-19T12:21:26;20.60;;;16.20;;
1300;SDS011;59099;48.806;9.160;2022-12-19T12:26:36;16.93;;;13.50;;
1300;SDS011;59099;48.806;9.160;2022-12-19T12:29:15;13.40;;;10.47;;
1300;SDS011;59099;48.806;9.160;2022-12-19T12:38:07;22.63;;;18.77;;
1300;SDS011;59099;48.806;9.160;2022-12-19T12:41:22;26.83;;;21.43;;
1300;SDS011;59099;48.806;9.160;2022-12-19T12:44:07;28.60;;;20.87;;
1300;SDS011;59099;48.806;9.160;2022-12-19T12:46:48;26.70;;;20.40;;
1300;SDS011;59099;48.806;9.160;2022-12-19T12:52:00;29.00;;;21.67;;
1300;SDS011;59099;48.806;9.160;2022-12-19T12:54:31;28.33;;;21.27;;
1300;SDS011;59099;48.806;9.160;2022-12-19T12:57:02;31.80;;;21.87;;
1300;SDS011;59099;48.806;9.160;2022-12-19T12:59:46;28.00;;;20.60;;
1300;SDS011;59099;48.806;9.160;2022-12-19T13:02:14;25.77;;;20.47;;
1300;SDS011;59099;48.806;9.160;2022-12-19T13:04:55;24.87;;;21.60;;
1300;SDS011;59099;48.806;9.160;2022-12-19T13:07:28;25.40;;;18.67;;
1300;SDS011;59099;48.806;9.160;2022-12-19T13:10:14;23.73;;;18.50;;
1300;SDS011;59099;48.806;9.160;2022-12-19T13:13:01;16.03;;;11.50;;
1300;SDS011;59099;48.806;9.160;2022-12-19T13:15:40;12.57;;;10.60;;
1300;SDS011;59099;48.806;9.160;2022-12-19T13:21:03;12.90;;;10.40;;
1300;SDS011;59099;48.806;9.160;2022-12-19T13:26:03;16.10;;;9.83;;
1300;SDS011;59099;48.806;9.160;2022-12-19T13:28:43;10.07;;;8.00;;
1300;SDS011;59099;48.806;9.160;2022-12-19T13:44:49;23.00;;;18.03;;
1300;SDS011;59099;48.806;9.160;2022-12-19T13:47:18;14.80;;;10.77;;
1300;SDS011;59099;48.806;9.160;2022-12-19T13:49:44;12.30;;;7.83;;
1300;SDS011;59099;48.806;9.160;2022-12-19T13:52:10;8.63;;;6.93;;
1300;SDS011;59099;48.806;9.160;2022-12-19T13:54:44;8.37;;;7.27;;
1300;SDS011;59099;48.806;9.160;2022-12-19T13:57:19;10.10;;;8.00;;
1300;SDS011;59099;48.806;9.160;2022-12-19T13:59:46;8.60;;;6.80;;
1300;SDS011;59099;48.806;9.160;2022-12-19T14:02:26;8.87;;;7.50;;
1300;SDS011;59099;48.806;9.160;2022-12-19T14:04:52;7.13;;;5.97;;
1300;SDS011;59099;48.806;9.160;2022-12-19T14:10:00;8.97;;;7.30;;
1300;SDS011;59099;48.806;9.160;2022-12-19T14:12:29;7.97;;;7.17;;
1300;SDS011;59099;48.806;9.160;2022-12-19T14:15:21;9.80;;;7.30;;
1300;SDS011;59099;48.806;9.160;2022-12-19T14:17:47;10.43;;;7.03;;
1300;SDS011;59099;48.806;9.160;2022-12-19T14:20:21;12.13;;;8.47;;
1300;SDS011;59099;48.806;9.160;2022-12-19T14:22:53;9.37;;;7.43;;
1300;SDS011;59099;48.806;9.160;2022-12-19T14:25:23;8.97;;;6.20;;
1300;SDS011;59099;48.806;9.160;2022-12-19T14:27:59;10.00;;;6.90;;
1300;SDS011;59099;48.806;9.160;2022-12-19T14:30:32;7.70;;;6.90;;
1300;SDS011;59099;48.806;9.160;2022-12-19T14:33:06;8.43;;;6.93;;
1300;SDS011;59099;48.806;9.160;2022-12-19T14:35:43;9.00;;;7.70;;
1300;SDS011;59099;48.806;9.160;2022-12-19T14:38:34;10.67;;;6.10;;
1300;SDS011;59099;48.806;9.160;2022-12-19T14:41:15;12.00;;;9.30;;
1300;SDS011;59099;48.806;9.160;2022-12-19T14:44:40;9.90;;;7.40;;
1300;SDS011;59099;48.806;9.160;2022-12-19T14:49:50;9.33;;;7.10;;
1300;SDS011;59099;48.806;9.160;2022-12-19T14:57:44;14.40;;;10.17;;
1300;SDS011;59099;48.806;9.160;2022-12-19T15:02:58;10.37;;;8.37;;
1300;SDS011;59099;48.806;9.160;2022-12-19T15:05:28;11.00;;;8.30;;
1300;SDS011;59099;48.806;9.160;2022-12-19T15:07:58;10.40;;;8.30;;
1300;SDS011;59099;48.806;9.160;2022-12-19T15:10:31;11.87;;;8.33;;
1300;SDS011;59099;48.806;9.160;2022-12-19T15:13:00;9.27;;;8.23;;
1300;SDS011;59099;48.806;9.160;2022-12-19T15:15:52;13.37;;;9.73;;
1300;SDS011;59099;48.806;9.160;2022-12-19T15:21:02;11.50;;;9.07;;
1300;SDS011;59099;48.806;9.160;2022-12-19T15:23:36;19.67;;;11.43;;
1300;SDS011;59099;48.806;9.160;2022-12-19T15:26:03;13.43;;;9.80;;
1300;SDS011;59099;48.806;9.160;2022-12-19T15:28:39;13.90;;;9.07;;
1300;SDS011;59099;48.806;9.160;2022-12-19T15:33:58;10.67;;;9.57;;
1300;SDS011;59099;48.806;9.160;2022-12-19T15:36:26;14.20;;;9.17;;
1300;SDS011;59099;48.806;9.160;2022-12-19T15:38:55;9.63;;;8.63;;
1300;SDS011;59099;48.806;9.160;2022-12-19T15:41:22;10.07;;;8.40;;
1300;SDS011;59099;48.806;9.160;2022-12-19T15:43:49;11.00;;;9.43;;
1300;SDS011;59099;48.806;9.160;2022-12-19T15:46:22;11.27;;;8.60;;
1300;SDS011;59099;48.806;9.160;2022-12-19T15:48:52;13.23;;;9.00;;
1300;SDS011;59099;48.806;9.160;2022-12-19T15:52:00;13.57;;;9.10;;
1300;SDS011;59099;48.806;9.160;2022-12-19T15:54:34;11.63;;;8.70;;
1300;SDS011;59099;48.806;9.160;2022-12-19T16:01:07;14.47;;;10.10;;
1300;SDS011;59099;48.806;9.160;2022-12-19T16:03:56;10.47;;;9.03;;
1300;SDS011;59099;48.806;9.160;2022-12-19T16:06:54;13.20;;;9.63;;
1300;SDS011;59099;48.806;9.160;2022-12-19T16:09:36;12.00;;;10.73;;
1300;SDS011;59099;48.806;9.160;2022-12-19T16:12:15;13.20;;;9.70;;
1300;SDS011;59099;48.806;9.160;2022-12-19T16:15:14;14.20;;;10.50;;
1300;SDS011;59099;48.806;9.160;2022-12-19T16:17:48;11.90;;;9.87;;
1300;SDS011;59099;48.806;9.160;2022-12-19T16:20:21;19.20;;;11.77;;
1300;SDS011;59099;48.806;9.160;2022-12-19T16:23:09;13.60;;;10.37;;
1300;SDS011;59099;48.806;9.160;2022-12-19T16:25:46;15.47;;;11.20;;
1300;SDS011;59099;48.806;9.160;2022-12-19T16:28:43;14.67;;;11.67;;
1300;SDS011;59099;48.806;9.160;2022-12-19T16:31:34;23.33;;;13.30;;
1300;SDS011;59099;48.806;9.160;2022-12-19T16:34:13;21.73;;;14.17;;
1300;SDS011;59099;48.806;9.160;2022-12-19T16:36:46;22.33;;;17.40;;
1300;SDS011;59099;48.806;9.160;2022-12-19T16:39:17;24.60;;;17.47;;
1300;SDS011;59099;48.806;9.160;2022-12-19T16:42:02;18.90;;;13.80;;
1300;SDS011;59099;48.806;9.160;2022-12-19T16:44:48;20.87;;;14.80;;
1300;SDS011;59099;48.806;9.160;2022-12-19T16:47:38;17.57;;;13.23;;
1300;SDS011;59099;48.806;9.160;2022-12-19T16:50:30;18.50;;;12.90;;
1300;SDS011;59099;48.806;9.160;2022-12-19T16:53:27;18.40;;;13.20;;
1300;SDS011;59099;48.806;9.160;2022-12-19T16:59:12;19.57;;;16.07;;
1300;SDS011;59099;48.806;9.160;2022-12-19T17:01:46;20.07;;;15.30;;
1300;SDS011;59099;48.806;9.160;2022-12-19T17:04:14;24.47;;;19.10;;
1300;SDS011;59099;48.806;9.160;2022-12-19T17:06:51;25.60;;;17.80;;
1300;SDS011;59099;48.806;9.160;2022-12-19T17:09:28;20.47;;;15.43;;
1300;SDS011;59099;48.806;9.160;2022-12-19T17:11:58;17.90;;;14.80;;
1300;SDS011;59099;48.806;9.160;2022-12-19T17:14:26;24.10;;;18.50;;
1300;SDS011;59099;48.806;9.160;2022-12-19T17:16:55;17.80;;;15.63;;
1300;SDS011;59099;48.806;9.160;2022-12-19T17:19:23;19.80;;;16.40;;
1300;SDS011;59099;48.806;9.160;2022-12-19T17:21:54;20.30;;;16.03;;
1300;SDS011;59099;48.806;9.160;2022-12-19T17:24:24;26.03;;;18.20;;
1300;SDS011;59099;48.806;9.160;2022-12-19T17:27:06;20.40;;;17.20;;
1300;SDS011;59099;48.806;9.160;2022-12-19T17:29:32;25.50;;;19.40;;